Weather History for KMCC - September, 2013

Change the Weather History Date:

Monday, September 23, 2013

  Actual Average (KMHR) Record (KMHR)
Temperature  
Mean Temperature 66 °F -  
Max Temperature 80 °F 84 °F 98 °F (1997)
Min Temperature 53 °F 54 °F 46 °F (2010)
Cooling Degree Days 2    
Growing Degree Days 16 (Base 50)    
Moisture  
Dew Point 51 °F    
Average Humidity 61    
Maximum Humidity 88    
Minimum Humidity 30    
Precipitation  
Precipitation 0.00 in - - ()
Sea Level Pressure  
Sea Level Pressure 29.97 in    
Wind  
Wind Speed 3 mph (West)    
Max Wind Speed 9 mph    
Max Gust Speed -    
Visibility 10 miles    
Events      
Averages and records for this station are not official NWS values.
T = Trace of Precipitation, MM = Missing Value Source: NWS Daily Summary

Daily Weather History Graph

Daily Weather History Graph

Search for Another Location

Airport or City:

Trip Planner

Search our weather history database for the weather conditions in past years. The results will help you decide how hot, cold, wet, or windy it might be!

Date:

Astronomy

Sep. 23, 2013 Rise Set
Actual Time 6:54 AM PDT 7:00 PM PDT
Civil Twilight 6:28 AM PDT 7:26 PM PDT
Nautical Twilight 5:57 AM PDT 7:57 PM PDT
Astronomical Twilight 5:25 AM PDT 8:29 PM PDT
Moon 9:39 PM PDT (9/23) 11:15 AM PDT (9/23)
Length of Visible Light 12h 58m
Length of Day
12h 05m
Waning Gibbous, 80% of the Moon is Illuminated
Sep 23
Waning Gibbous
Sep 26
Last Quarter
Oct 4
New
Oct 11
First Quarter
Oct 18
Full

Hourly Weather History & Observations

Time (PDT) Temp. Dew Point Humidity Pressure Visibility Wind Dir Wind Speed Gust Speed Precip Events Conditions
12:10 AM 59.0 °F 51.8 °F 77% 29.99 in 10.0 mi NW 3.5 mph - N/A   Clear
12:30 AM 59.0 °F 53.6 °F 82% 29.99 in 10.0 mi Calm Calm - N/A   Clear
12:50 AM 59.0 °F 53.6 °F 82% 29.99 in 10.0 mi West 3.5 mph - N/A   Clear
1:10 AM 57.2 °F 51.8 °F 82% 29.99 in 10.0 mi NNW 3.5 mph - N/A   Clear
1:30 AM 57.2 °F 51.8 °F 82% 29.99 in 10.0 mi Calm Calm - N/A   Clear
1:50 AM 57.2 °F 51.8 °F 82% 29.99 in 10.0 mi NNE 3.5 mph - N/A   Clear
2:10 AM 57.2 °F 51.8 °F 82% 30.00 in 10.0 mi NE 3.5 mph - N/A   Clear
2:30 AM 57.2 °F 51.8 °F 82% 30.00 in 10.0 mi Calm Calm - N/A   Clear
2:50 AM 57.2 °F 50.0 °F 77% 29.99 in 10.0 mi NE 4.6 mph - N/A   Clear
3:10 AM 55.4 °F 50.0 °F 82% 29.99 in 10.0 mi NE 3.5 mph - N/A   Clear
3:30 AM 55.4 °F 50.0 °F 82% 29.99 in 10.0 mi Calm Calm - N/A   Clear
3:50 AM 57.2 °F 50.0 °F 77% 29.99 in 10.0 mi Calm Calm - N/A   Clear
4:10 AM 57.2 °F 50.0 °F 77% 29.99 in 10.0 mi Calm Calm - N/A   Clear
4:30 AM 57.2 °F 51.8 °F 82% 29.99 in 10.0 mi ESE 4.6 mph - N/A   Clear
4:50 AM 57.2 °F 51.8 °F 82% 29.99 in 10.0 mi Calm Calm - N/A   Clear
5:10 AM 55.4 °F 51.8 °F 88% 29.99 in 10.0 mi Calm Calm - N/A   Clear
5:30 AM 55.4 °F 51.8 °F 88% 29.99 in 10.0 mi Calm Calm - N/A   Clear
5:50 AM 53.6 °F 50.0 °F 88% 29.99 in 10.0 mi Calm Calm - N/A   Clear
6:10 AM 53.6 °F 50.0 °F 88% 29.99 in 10.0 mi Calm Calm - N/A   Clear
6:30 AM 53.6 °F 50.0 °F 88% 30.00 in 10.0 mi Calm Calm - N/A   Clear
6:50 AM 53.6 °F 50.0 °F 88% 30.00 in 10.0 mi Calm Calm - N/A   Clear
7:10 AM 53.6 °F 50.0 °F 88% 30.01 in 10.0 mi Calm Calm - N/A   Clear
7:30 AM 53.6 °F 50.0 °F 88% 30.01 in 10.0 mi Calm Calm - N/A   Clear
7:50 AM 55.4 °F 51.8 °F 88% 30.02 in 10.0 mi Calm Calm - N/A   Clear
8:10 AM 57.2 °F 53.6 °F 88% 30.02 in 10.0 mi Calm Calm - N/A   Clear
8:30 AM 59.0 °F 53.6 °F 82% 30.02 in 10.0 mi Calm Calm - N/A   Clear
8:50 AM 60.8 °F 53.6 °F 77% 30.03 in 10.0 mi Calm Calm - N/A   Clear
9:10 AM 62.6 °F 53.6 °F 72% 30.03 in 10.0 mi Calm Calm - N/A   Clear
9:30 AM 62.6 °F 51.8 °F 68% 30.03 in 10.0 mi Calm Calm - N/A   Clear
9:50 AM 64.4 °F 51.8 °F 64% 30.03 in 10.0 mi Calm Calm - N/A   Clear
10:10 AM 66.2 °F 51.8 °F 60% 30.03 in 10.0 mi Calm Calm - N/A   Clear
10:30 AM 66.2 °F 51.8 °F 60% 30.03 in 10.0 mi WNW 4.6 mph - N/A   Clear
10:50 AM 68.0 °F 51.8 °F 56% 30.02 in 10.0 mi West 5.8 mph - N/A   Clear
11:10 AM 69.8 °F 50.0 °F 49% 30.03 in 10.0 mi NW 5.8 mph - N/A   Clear
11:30 AM 71.6 °F 50.0 °F 46% 30.02 in 10.0 mi West 6.9 mph - N/A   Clear
11:50 AM 71.6 °F 50.0 °F 46% 30.02 in 10.0 mi NNW 4.6 mph - N/A   Clear
12:10 PM 73.4 °F 50.0 °F 44% 30.01 in 10.0 mi WNW 6.9 mph - N/A   Clear
12:30 PM 73.4 °F 48.2 °F 41% 30.01 in 10.0 mi NW 4.6 mph - N/A   Clear
12:50 PM 75.2 °F 50.0 °F 41% 30.00 in 10.0 mi West 6.9 mph - N/A   Clear
1:10 PM 75.2 °F 50.0 °F 41% 29.99 in 10.0 mi WNW 4.6 mph - N/A   Clear
1:30 PM 75.2 °F 50.0 °F 41% 29.98 in 10.0 mi NW 9.2 mph - N/A   Clear
1:50 PM 77.0 °F 53.6 °F 44% 29.97 in 10.0 mi West 4.6 mph - N/A   Clear
2:10 PM 78.8 °F 51.8 °F 39% 29.97 in 9.0 mi NW 9.2 mph - N/A   Clear
2:30 PM 78.8 °F 51.8 °F 39% 29.96 in 10.0 mi WNW 6.9 mph - N/A   Clear
2:50 PM 80.6 °F 51.8 °F 37% 29.96 in 9.0 mi West 6.9 mph - N/A   Clear
3:10 PM 80.6 °F 50.0 °F 34% 29.95 in 9.0 mi NNW 9.2 mph - N/A   Clear
3:30 PM 80.6 °F 50.0 °F 34% 29.94 in 10.0 mi Calm Calm - N/A   Clear
3:50 PM 80.6 °F 50.0 °F 34% 29.94 in 10.0 mi West 8.1 mph - N/A   Clear
4:10 PM 80.6 °F 50.0 °F 34% 29.94 in 10.0 mi West 6.9 mph - N/A   Clear
4:30 PM 80.6 °F 50.0 °F 34% 29.93 in 10.0 mi WNW 5.8 mph - N/A   Clear
4:50 PM 80.6 °F 50.0 °F 34% 29.93 in 10.0 mi West 4.6 mph - N/A   Clear
5:10 PM 80.6 °F 48.2 °F 32% 29.92 in 10.0 mi West 6.9 mph - N/A   Clear
5:30 PM 80.6 °F 46.4 °F 30% 29.92 in 10.0 mi West 4.6 mph - N/A   Clear
5:50 PM 80.6 °F 48.2 °F 32% 29.92 in 10.0 mi Calm Calm - N/A   Clear
6:10 PM 80.6 °F 46.4 °F 30% 29.92 in 10.0 mi Calm Calm - N/A   Clear
6:30 PM 80.6 °F 46.4 °F 30% 29.91 in 10.0 mi Calm Calm - N/A   Clear
6:50 PM 78.8 °F 46.4 °F 32% 29.91 in 10.0 mi Calm Calm - N/A   Clear
7:10 PM 77.0 °F 46.4 °F 34% 29.91 in 10.0 mi Calm Calm - N/A   Clear
7:30 PM 75.2 °F 50.0 °F 41% 29.91 in 10.0 mi South 3.5 mph - N/A   Clear
7:50 PM 75.2 °F 50.0 °F 41% 29.92 in 10.0 mi SSE 4.6 mph - N/A   Clear
8:10 PM 73.4 °F 50.0 °F 44% 29.92 in 10.0 mi South 4.6 mph - N/A   Clear
8:30 PM 73.4 °F 53.6 °F 50% 29.93 in 10.0 mi South 4.6 mph - N/A   Clear
8:50 PM 73.4 °F 53.6 °F 50% 29.93 in 10.0 mi SSW 9.2 mph - N/A   Clear
9:10 PM 73.4 °F 55.4 °F 53% 29.93 in 10.0 mi SSW 6.9 mph - N/A   Unknown
9:30 PM 71.6 °F 55.4 °F 57% 29.93 in 10.0 mi SSW 6.9 mph - N/A   Clear
9:50 PM 71.6 °F 55.4 °F 57% 29.93 in 10.0 mi SSW 5.8 mph - N/A   Clear
10:10 PM 68.0 °F 55.4 °F 64% 29.94 in 10.0 mi South 5.8 mph - N/A   Clear
10:30 PM 68.0 °F 57.2 °F 68% 29.93 in 10.0 mi South 6.9 mph - N/A   Clear
10:50 PM 68.0 °F 55.4 °F 64% 29.93 in 10.0 mi South 6.9 mph - N/A   Clear
11:10 PM 66.2 °F 55.4 °F 68% 29.93 in 10.0 mi SSE 6.9 mph - N/A   Clear
11:30 PM 64.4 °F 55.4 °F 73% 29.93 in 10.0 mi ESE 4.6 mph - N/A   Clear
11:50 PM 66.2 °F 55.4 °F 68% 29.93 in 10.0 mi ESE 5.8 mph - N/A   Clear